createdAt,value
2023-04-29T00:01:11.914Z,99915.41
2023-04-29T00:03:58.611Z,99908.44
2023-04-29T00:06:44.914Z,99910.25
2023-04-29T00:09:31.052Z,99903.28
2023-04-29T00:12:17.848Z,99907.81
2023-04-29T00:15:04.776Z,99912.63
2023-04-29T00:17:51.951Z,99909.75
2023-04-29T00:20:39.258Z,99903.19
2023-04-29T00:23:25.105Z,99875.19
2023-04-29T00:26:11.826Z,99907.66
2023-04-29T00:28:59.138Z,99892.97
2023-04-29T00:31:46.198Z,99900.06
2023-04-29T00:34:32.119Z,99903.47
2023-04-29T00:37:18.864Z,99896.09
2023-04-29T00:40:06.708Z,99888.31
2023-04-29T00:42:52.881Z,99867.06
2023-04-29T00:45:38.527Z,99892.53
2023-04-29T00:48:24.548Z,99871.28
2023-04-29T00:51:11.066Z,99856.97
2023-04-29T00:53:57.744Z,99863.25
2023-04-29T00:56:45.593Z,99869.72
2023-04-29T00:59:32.508Z,99883.66
2023-04-29T01:02:18.879Z,99875.56
2023-04-29T01:05:05.337Z,99887.19
2023-04-29T01:08:39.665Z,99887.63
2023-04-29T01:11:33.723Z,99860.28
2023-04-29T01:14:19.857Z,99883.53
2023-04-29T01:17:10.972Z,99879.41
2023-04-29T01:19:59.763Z,99882.41
2023-04-29T01:22:47.491Z,99841.69
2023-04-29T01:25:33.314Z,99847.94
2023-04-29T01:28:54.700Z,99881.16
2023-04-29T01:31:52.429Z,99823.16
2023-04-29T01:34:51.644Z,99876.44
2023-04-29T01:38:04.275Z,99850.47
2023-04-29T01:40:59.437Z,99867.53
2023-04-29T01:43:48.575Z,99882.22
2023-04-29T01:46:41.169Z,99880.28
2023-04-29T01:49:28.085Z,99856.97
2023-04-29T01:52:14.817Z,99885.94
2023-04-29T01:55:06.447Z,99877.44
2023-04-29T01:58:02.595Z,99885.44
2023-04-29T02:01:04.770Z,99894.59
2023-04-29T02:03:52.713Z,99879.78
2023-04-29T02:06:38.925Z,99858.97
2023-04-29T02:09:25.545Z,99885.53
2023-04-29T02:12:17.797Z,99884.41
2023-04-29T02:15:04.426Z,99883.47
2023-04-29T02:17:50.244Z,99854.31
2023-04-29T02:20:39.699Z,99854.81
2023-04-29T02:23:25.615Z,99879.06
2023-04-29T02:26:12.114Z,99830.34
2023-04-29T02:28:58.022Z,99853.09
2023-04-29T02:31:44.119Z,99871.72
2023-04-29T02:34:31.371Z,99872.75
2023-04-29T02:37:19.216Z,99858.34
2023-04-29T02:40:07.692Z,99868.47
2023-04-29T02:42:53.721Z,99841.19
2023-04-29T02:45:39.544Z,99870.97
2023-04-29T02:48:25.891Z,99859.47
2023-04-29T02:51:11.711Z,99836.41
2023-04-29T02:53:57.684Z,99873.06
2023-04-29T02:56:44.286Z,99858.72
2023-04-29T02:59:30.200Z,99863.50
2023-04-29T03:02:16.354Z,99872.06
2023-04-29T03:05:05.795Z,99865.34
2023-04-29T03:07:52.235Z,99866.66
2023-04-29T03:10:41.503Z,99867.28
2023-04-29T03:13:27.857Z,99856.91
2023-04-29T03:16:16.942Z,99826.81
2023-04-29T03:19:03.168Z,99855.75
2023-04-29T03:21:51.556Z,99845.81
2023-04-29T03:24:39.428Z,99853.50
2023-04-29T03:27:25.728Z,99846.16
2023-04-29T03:30:12.222Z,99844.50
2023-04-29T03:33:05.066Z,99836.28
2023-04-29T03:35:51.518Z,99852.56
2023-04-29T03:38:52.792Z,99858.16
2023-04-29T03:41:38.968Z,99824.44
2023-04-29T03:44:25.705Z,99823.94
2023-04-29T03:47:11.605Z,99853.44
2023-04-29T03:49:57.873Z,99855.19
2023-04-29T03:52:43.890Z,99859.53
2023-04-29T03:55:34.247Z,99849.84
2023-04-29T03:58:20.412Z,99854.09
2023-04-29T04:01:06.213Z,99854.09
2023-04-29T04:03:59.963Z,99853.97
2023-04-29T04:06:51.992Z,99846.22
2023-04-29T04:09:41.179Z,99790.63
2023-04-29T04:12:27.974Z,99832.22
2023-04-29T04:15:14.258Z,99833.06
2023-04-29T04:18:00.916Z,99855.59
2023-04-29T04:20:47.483Z,99863.81
2023-04-29T04:23:33.941Z,99855.81
2023-04-29T04:26:23.163Z,99821.22
2023-04-29T04:29:23.263Z,99860.16
2023-04-29T04:32:14.603Z,99855.09
2023-04-29T04:35:00.376Z,99832.88
2023-04-29T04:37:46.620Z,99849.63
2023-04-29T04:40:32.851Z,99825.06
2023-04-29T04:43:39.907Z,99848.03
2023-04-29T04:46:32.367Z,99857.91
2023-04-29T04:49:25.518Z,99854.34
2023-04-29T04:52:12.049Z,99850.00
2023-04-29T04:54:58.021Z,99861.56
2023-04-29T04:57:46.430Z,99858.66
2023-04-29T05:00:32.445Z,99837.28
2023-04-29T05:03:18.896Z,99856.72
2023-04-29T05:06:04.943Z,99851.31
2023-04-29T05:08:51.333Z,99824.34
2023-04-29T05:11:37.885Z,99856.16
2023-04-29T05:14:42.185Z,99849.31
2023-04-29T05:17:28.422Z,99849.38
2023-04-29T05:20:15.092Z,99862.44
2023-04-29T05:23:01.339Z,99824.81
2023-04-29T05:25:49.610Z,99857.66
2023-04-29T05:28:36.530Z,99856.25
2023-04-29T05:31:23.228Z,99867.22
2023-04-29T05:34:09.367Z,99833.84
2023-04-29T05:36:55.755Z,99844.41
2023-04-29T05:39:41.463Z,99868.69
2023-04-29T05:42:33.119Z,99848.34
2023-04-29T05:45:20.266Z,99858.94
2023-04-29T05:48:08.911Z,99852.81
2023-04-29T05:50:55.027Z,99848.69
2023-04-29T05:53:41.797Z,99858.88
2023-04-29T05:56:27.913Z,99856.28
2023-04-29T05:59:15.151Z,99849.84
2023-04-29T06:02:06.636Z,99845.16
2023-04-29T06:04:54.457Z,99844.03
2023-04-29T06:07:59.258Z,99855.97
2023-04-29T06:11:03.508Z,99848.75
2023-04-29T06:13:49.244Z,99849.09
2023-04-29T06:16:35.701Z,99841.41
2023-04-29T06:19:21.728Z,99823.94
2023-04-29T06:22:08.540Z,99842.50
2023-04-29T06:24:55.017Z,99846.41
2023-04-29T06:28:04.554Z,99847.06
2023-04-29T06:30:50.820Z,99825.59
2023-04-29T06:33:38.516Z,99812.72
2023-04-29T06:36:25.163Z,99803.53
2023-04-29T06:39:34.697Z,99834.56
2023-04-29T06:42:34.912Z,99791.13
2023-04-29T06:45:47.111Z,99838.47
2023-04-29T06:48:41.128Z,99840.88
2023-04-29T06:51:28.108Z,99824.72
2023-04-29T06:54:14.278Z,99851.53
2023-04-29T06:57:00.896Z,99851.84
2023-04-29T06:59:46.646Z,99842.50
2023-04-29T07:02:32.765Z,99844.28
2023-04-29T07:05:19.719Z,99852.19
2023-04-29T07:08:06.214Z,99857.19
2023-04-29T07:10:56.643Z,99853.81
2023-04-29T07:13:43.611Z,99856.06
2023-04-29T07:16:29.499Z,99827.03
2023-04-29T07:19:16.121Z,99847.81
2023-04-29T07:22:02.197Z,99853.50
2023-04-29T07:24:48.785Z,99822.03
2023-04-29T07:27:35.158Z,99845.41
2023-04-29T07:30:21.048Z,99847.03
2023-04-29T07:33:06.842Z,99840.56
2023-04-29T07:35:53.207Z,99855.06
2023-04-29T07:38:40.243Z,99860.84
2023-04-29T07:41:26.832Z,99860.84
2023-04-29T07:44:13.053Z,99850.66
2023-04-29T07:46:59.009Z,99859.06
2023-04-29T07:49:45.057Z,99841.28
2023-04-29T07:52:31.404Z,99855.50
2023-04-29T07:55:17.822Z,99861.75
2023-04-29T07:58:04.091Z,99857.69
2023-04-29T08:00:50.249Z,99860.47
2023-04-29T08:03:39.804Z,99857.69
2023-04-29T08:06:27.231Z,99868.97
2023-04-29T08:09:13.547Z,99832.63
2023-04-29T08:12:02.165Z,99859.22
2023-04-29T08:14:48.486Z,99854.13
2023-04-29T08:17:34.606Z,99854.25
2023-04-29T08:20:21.132Z,99835.97
2023-04-29T08:23:07.086Z,99865.06
2023-04-29T08:25:55.283Z,99840.38
2023-04-29T08:28:41.255Z,99849.16
2023-04-29T08:31:27.551Z,99864.59
2023-04-29T08:34:13.847Z,99852.13
2023-04-29T08:36:59.898Z,99859.25
2023-04-29T08:39:47.950Z,99856.69
2023-04-29T08:42:37.694Z,99857.28
2023-04-29T08:45:25.250Z,99832.81
2023-04-29T08:48:11.962Z,99845.81
2023-04-29T08:51:02.447Z,99855.16
2023-04-29T08:53:48.457Z,99817.91
2023-04-29T08:56:34.263Z,99803.88
2023-04-29T08:59:21.177Z,99831.13
2023-04-29T09:02:09.694Z,99857.91
2023-04-29T09:05:03.931Z,99833.53
2023-04-29T09:07:51.575Z,99844.72
2023-04-29T09:10:38.847Z,99841.84
2023-04-29T09:13:31.479Z,99850.84
2023-04-29T09:16:17.568Z,99862.31
2023-04-29T09:19:03.572Z,99849.03
2023-04-29T09:21:55.849Z,99860.63
2023-04-29T09:24:43.744Z,99848.28
2023-04-29T09:27:29.720Z,99787.72
2023-04-29T09:30:16.960Z,99857.28
2023-04-29T09:33:08.101Z,99849.81
2023-04-29T09:35:54.739Z,99855.72
2023-04-29T09:38:54.956Z,99815.97
2023-04-29T09:41:57.822Z,99829.78
2023-04-29T09:44:45.283Z,99851.63
2023-04-29T09:47:32.929Z,99852.47
2023-04-29T09:50:19.869Z,99850.75
2023-04-29T09:53:11.016Z,99857.06
2023-04-29T09:56:03.822Z,99831.47
2023-04-29T09:58:49.906Z,99846.84
2023-04-29T10:01:36.024Z,99847.78
2023-04-29T10:04:23.735Z,99855.13
2023-04-29T10:07:15.860Z,99844.41
2023-04-29T10:10:03.156Z,99848.31
2023-04-29T10:12:49.841Z,99828.09
2023-04-29T10:15:43.368Z,99846.34
2023-04-29T10:18:41.933Z,99823.81
2023-04-29T10:21:31.687Z,99847.41
2023-04-29T10:24:19.413Z,99833.97
2023-04-29T10:27:14.499Z,99829.69
2023-04-29T10:30:01.132Z,99838.28
2023-04-29T10:32:51.570Z,99839.88
2023-04-29T10:35:38.718Z,99841.13
2023-04-29T10:38:36.332Z,99843.63
2023-04-29T10:41:25.709Z,99844.78
2023-04-29T10:44:11.541Z,99847.03
2023-04-29T10:47:20.273Z,99831.41
2023-04-29T10:50:06.438Z,99838.97
2023-04-29T10:52:52.878Z,99835.06
2023-04-29T10:55:39.186Z,99831.06
2023-04-29T10:58:41.062Z,99839.91
2023-04-29T11:01:44.536Z,99829.91
2023-04-29T11:04:31.669Z,99835.44
2023-04-29T11:07:31.047Z,99841.91
2023-04-29T11:10:16.656Z,99835.84
2023-04-29T11:13:26.107Z,99822.34
2023-04-29T11:16:12.339Z,99835.56
2023-04-29T11:19:06.002Z,99805.56
2023-04-29T11:22:04.673Z,99805.16
2023-04-29T11:24:50.834Z,99794.91
2023-04-29T11:27:39.983Z,99835.91
2023-04-29T11:30:26.316Z,99831.59
2023-04-29T11:33:11.737Z,99826.34
2023-04-29T11:35:58.548Z,99840.16
2023-04-29T11:38:44.487Z,99825.34
2023-04-29T11:41:31.683Z,99826.16
2023-04-29T11:44:22.656Z,99833.22
2023-04-29T11:47:08.746Z,99792.16
2023-04-29T11:50:11.563Z,99823.84
2023-04-29T11:52:58.179Z,99830.72
2023-04-29T11:55:44.859Z,99832.56
2023-04-29T11:58:31.352Z,99801.97
2023-04-29T12:01:17.236Z,99834.97
2023-04-29T12:04:04.122Z,99828.31
2023-04-29T12:06:53.058Z,99832.25
2023-04-29T12:09:44.856Z,99827.16
2023-04-29T12:12:35.004Z,99821.38
2023-04-29T12:15:21.055Z,99826.56
2023-04-29T12:18:06.987Z,99819.75
2023-04-29T12:20:53.009Z,99818.81
2023-04-29T12:23:39.363Z,99795.84
2023-04-29T12:26:28.359Z,99822.28
2023-04-29T12:29:14.706Z,99819.53
2023-04-29T12:32:00.981Z,99814.28
2023-04-29T12:34:47.666Z,99794.84
2023-04-29T12:37:35.349Z,99819.28
2023-04-29T12:40:21.765Z,99811.44
2023-04-29T12:43:11.731Z,99813.34
2023-04-29T12:46:04.227Z,99817.09
2023-04-29T12:48:50.849Z,99803.16
2023-04-29T12:51:37.573Z,99805.81
2023-04-29T12:54:23.902Z,99805.31
2023-04-29T12:57:11.780Z,99809.47
2023-04-29T12:59:58.203Z,99796.63
2023-04-29T13:02:44.726Z,99799.22
2023-04-29T13:05:31.523Z,99806.91
2023-04-29T13:08:18.280Z,99803.50
2023-04-29T13:11:04.832Z,99784.63
2023-04-29T13:13:50.724Z,99807.81
2023-04-29T13:16:37.407Z,99803.28
2023-04-29T13:22:13.509Z,99798.91
2023-04-29T13:24:59.815Z,99801.84
2023-04-29T13:27:45.730Z,99809.69
2023-04-29T13:30:32.014Z,99800.44
2023-04-29T13:33:19.622Z,99797.38
2023-04-29T13:36:05.742Z,99800.88
2023-04-29T13:38:55.603Z,99801.84
2023-04-29T13:41:45.492Z,99796.41
2023-04-29T13:44:44.505Z,99804.88
2023-04-29T13:47:55.037Z,99801.47
2023-04-29T13:59:36.318Z,99776.88
2023-04-29T14:02:24.944Z,99798.47
2023-04-29T14:05:11.750Z,99794.16
2023-04-29T14:07:58.038Z,99790.38
2023-04-29T14:10:44.019Z,99786.59
2023-04-29T14:13:30.703Z,99784.41
2023-04-29T14:16:17.541Z,99793.16
2023-04-29T14:19:04.404Z,99789.50
2023-04-29T14:21:50.638Z,99782.19
2023-04-29T14:24:39.380Z,99780.50
2023-04-29T14:27:25.294Z,99797.03
2023-04-29T14:30:11.768Z,99794.16
2023-04-29T14:32:57.876Z,99796.75
2023-04-29T14:35:43.737Z,99797.47
2023-04-29T14:38:29.283Z,99793.81
2023-04-29T14:41:16.051Z,99793.31
2023-04-29T14:44:02.064Z,99793.38
2023-04-29T14:46:49.002Z,99788.72
2023-04-29T14:49:35.268Z,99766.81
2023-04-29T14:52:21.230Z,99795.25
2023-04-29T14:55:07.927Z,99790.94
2023-04-29T14:57:54.534Z,99783.66
2023-04-29T15:00:40.487Z,99785.19
2023-04-29T15:03:26.831Z,99791.44
2023-04-29T15:06:13.371Z,99797.44
2023-04-29T15:09:00.187Z,99803.94
2023-04-29T15:11:46.245Z,99818.09
2023-04-29T15:14:33.587Z,99811.13
2023-04-29T15:17:19.698Z,99826.41
2023-04-29T15:20:07.718Z,99817.47
2023-04-29T15:22:53.594Z,99795.94
2023-04-29T15:25:40.313Z,99821.22
2023-04-29T15:28:26.420Z,99802.16
2023-04-29T15:31:13.312Z,99826.75
2023-04-29T15:33:59.821Z,99824.13
2023-04-29T15:36:46.202Z,99813.19
2023-04-29T15:39:31.772Z,99826.97
2023-04-29T15:42:17.967Z,99807.69
2023-04-29T15:45:04.107Z,99844.75
2023-04-29T15:47:50.746Z,99840.28
2023-04-29T15:50:36.603Z,99839.44
2023-04-29T15:53:23.362Z,99826.81
2023-04-29T15:56:08.989Z,99852.44
2023-04-29T15:58:54.904Z,99816.56
2023-04-29T16:01:40.744Z,99837.44
2023-04-29T16:04:26.869Z,99856.63
2023-04-29T16:07:12.902Z,99852.59
2023-04-29T16:09:58.963Z,99862.91
2023-04-29T16:12:45.182Z,99861.03
2023-04-29T16:15:31.754Z,99856.19
2023-04-29T16:18:18.403Z,99844.44
2023-04-29T16:21:05.632Z,99854.78
2023-04-29T16:23:51.686Z,99855.81
2023-04-29T16:26:40.336Z,99861.63
2023-04-29T16:29:26.520Z,99856.81
2023-04-29T16:32:12.869Z,99857.81
2023-04-29T16:35:00.149Z,99827.22
2023-04-29T16:37:47.865Z,99869.28
2023-04-29T16:40:33.587Z,99864.44
2023-04-29T16:43:19.877Z,99871.38
2023-04-29T16:46:06.418Z,99847.41
2023-04-29T16:48:56.801Z,99878.84
2023-04-29T16:51:43.017Z,99878.38
2023-04-29T16:54:28.803Z,99875.81
2023-04-29T16:57:14.451Z,99880.84
2023-04-29T17:00:00.339Z,99862.47
2023-04-29T17:02:48.480Z,99878.78
2023-04-29T17:05:36.018Z,99872.84
2023-04-29T17:08:21.926Z,99888.97
2023-04-29T17:11:08.246Z,99890.78
2023-04-29T17:13:54.561Z,99890.31
2023-04-29T17:16:40.848Z,99904.22
2023-04-29T17:19:27.011Z,99902.91
2023-04-29T17:22:13.348Z,99902.91
2023-04-29T17:24:58.852Z,99916.56
2023-04-29T17:27:46.141Z,99902.53
2023-04-29T17:30:33.357Z,99891.28
2023-04-29T17:33:19.205Z,99914.53
2023-04-29T17:36:06.337Z,99899.13
2023-04-29T17:38:52.279Z,99924.97
2023-04-29T17:41:38.281Z,99913.53
2023-04-29T17:44:24.460Z,99930.19
2023-04-29T17:47:11.202Z,99926.50
2023-04-29T17:50:00.229Z,99927.19
2023-04-29T17:52:48.176Z,99935.59
2023-04-29T17:55:34.572Z,99911.72
2023-04-29T17:58:21.599Z,99928.63
2023-04-29T18:01:08.329Z,99931.38
2023-04-29T18:03:54.528Z,99938.03
2023-04-29T18:06:41.112Z,99927.41
2023-04-29T18:09:27.112Z,99952.13
2023-04-29T18:12:14.470Z,99917.78
2023-04-29T18:15:01.963Z,99955.84
2023-04-29T18:17:48.116Z,99964.25
2023-04-29T18:20:34.481Z,99958.94
2023-04-29T18:23:20.711Z,99971.38
2023-04-29T18:26:06.536Z,99940.13
2023-04-29T18:28:53.078Z,99964.81
2023-04-29T18:31:39.243Z,99953.34
2023-04-29T18:34:25.924Z,99971.63
2023-04-29T18:37:12.416Z,99950.44
2023-04-29T18:39:58.607Z,99992.16
2023-04-29T18:42:44.767Z,99965.66
2023-04-29T18:45:31.259Z,100003.94
2023-04-29T18:48:17.468Z,100012.00
2023-04-29T18:51:06.025Z,100006.06
2023-04-29T18:53:52.481Z,100012.84
2023-04-29T18:56:40.172Z,100022.53
2023-04-29T18:59:26.960Z,100018.97
2023-04-29T19:02:15.099Z,100020.91
2023-04-29T19:05:06.265Z,100034.00
2023-04-29T19:07:52.544Z,100038.53
2023-04-29T19:10:38.853Z,100019.78
2023-04-29T19:13:26.745Z,100048.84
2023-04-29T19:16:12.842Z,100029.59
2023-04-29T19:18:59.268Z,100042.50
2023-04-29T19:21:45.560Z,100054.31
2023-04-29T19:24:32.838Z,100065.44
2023-04-29T19:27:18.687Z,100067.34
2023-04-29T19:30:05.639Z,100076.84
2023-04-29T19:32:51.827Z,100083.31
2023-04-29T19:35:38.593Z,100071.81
2023-04-29T19:38:25.794Z,100090.88
2023-04-29T19:41:12.375Z,100070.00
2023-04-29T19:43:58.715Z,100096.50
2023-04-29T19:46:45.491Z,100089.03
2023-04-29T19:49:31.770Z,100098.59
2023-04-29T19:52:17.988Z,100106.97
2023-04-29T19:55:05.037Z,100108.09
2023-04-29T19:57:52.686Z,100107.94
2023-04-29T20:00:38.523Z,100116.97
2023-04-29T20:03:25.530Z,100120.66
2023-04-29T20:06:12.465Z,100126.13
2023-04-29T20:08:59.347Z,100130.00
2023-04-29T20:11:45.650Z,100129.97
2023-04-29T20:14:33.116Z,100141.25
2023-04-29T20:17:19.500Z,100115.19
2023-04-29T20:20:09.180Z,100141.50
2023-04-29T20:22:58.177Z,100138.53
2023-04-29T20:25:44.363Z,100136.72
2023-04-29T20:28:30.560Z,100146.81
2023-04-29T20:31:17.080Z,100156.47
2023-04-29T20:34:02.780Z,100152.34
2023-04-29T20:36:49.226Z,100164.91
2023-04-29T20:39:35.301Z,100162.59
2023-04-29T20:42:22.302Z,100167.78
2023-04-29T20:45:08.941Z,100179.34
2023-04-29T20:47:55.301Z,100185.63
2023-04-29T20:50:41.129Z,100185.00
2023-04-29T20:53:27.019Z,100156.78
2023-04-29T20:56:13.795Z,100188.19
2023-04-29T20:58:59.807Z,100192.47
2023-04-29T21:01:46.454Z,100190.84
2023-04-29T21:04:33.189Z,100201.81
2023-04-29T21:07:19.221Z,100197.75
2023-04-29T21:10:05.917Z,100210.63
2023-04-29T21:12:52.385Z,100217.53
2023-04-29T21:15:39.496Z,100221.38
2023-04-29T21:18:26.091Z,100229.09
2023-04-29T21:21:13.208Z,100250.31
2023-04-29T21:23:59.284Z,100234.28
2023-04-29T21:26:46.042Z,100229.81
2023-04-29T21:29:31.900Z,100234.28
2023-04-29T21:32:21.695Z,100258.44
2023-04-29T21:35:08.625Z,100257.13
2023-04-29T21:37:54.872Z,100226.38
2023-04-29T21:40:41.634Z,100270.00
2023-04-29T21:43:28.591Z,100240.47
2023-04-29T21:46:15.589Z,100270.00
2023-04-29T21:49:02.869Z,100251.22
2023-04-29T21:51:48.627Z,100238.66
2023-04-29T21:54:34.790Z,100267.25
2023-04-29T21:57:28.949Z,100282.47
2023-04-29T22:00:33.669Z,100246.28
2023-04-29T22:03:19.371Z,100251.44
2023-04-29T22:06:05.782Z,100282.28
2023-04-29T22:08:51.898Z,100275.78
2023-04-29T22:11:38.716Z,100288.56
2023-04-29T22:14:24.369Z,100273.13
2023-04-29T22:17:10.905Z,100285.63
2023-04-29T22:19:56.895Z,100286.81
2023-04-29T22:22:43.001Z,100280.94
2023-04-29T22:25:29.017Z,100290.97
2023-04-29T22:28:15.360Z,100289.75
2023-04-29T22:31:01.305Z,100294.13
2023-04-29T22:33:47.934Z,100274.72
2023-04-29T22:36:34.089Z,100312.25
2023-04-29T22:39:20.509Z,100282.25
2023-04-29T22:42:07.129Z,100309.84
2023-04-29T22:44:53.623Z,100306.38
2023-04-29T22:47:39.859Z,100316.19
2023-04-29T22:50:26.150Z,100292.13
2023-04-29T22:53:11.878Z,100315.19
2023-04-29T22:55:59.503Z,100289.06
2023-04-29T22:58:45.318Z,100293.75
2023-04-29T23:01:31.609Z,100314.03
2023-04-29T23:04:18.133Z,100319.91
2023-04-29T23:07:04.312Z,100320.78
2023-04-29T23:09:51.127Z,100312.06
2023-04-29T23:12:37.106Z,100324.63
2023-04-29T23:15:23.434Z,100326.09
2023-04-29T23:18:09.989Z,100313.78
2023-04-29T23:20:56.832Z,100327.72
2023-04-29T23:23:43.473Z,100318.06
2023-04-29T23:26:29.546Z,100323.00
2023-04-29T23:29:16.150Z,100329.91
2023-04-29T23:32:02.227Z,100331.34
2023-04-29T23:34:48.335Z,100335.03
2023-04-29T23:37:34.664Z,100312.31
2023-04-29T23:40:21.356Z,100314.84
2023-04-29T23:43:07.200Z,100333.38
2023-04-29T23:45:53.475Z,100332.84
2023-04-29T23:48:39.665Z,100331.84
2023-04-29T23:51:26.555Z,100329.25
2023-04-29T23:54:12.216Z,100320.31
2023-04-29T23:56:58.366Z,100320.66
2023-04-29T23:59:45.640Z,100316.88
